Time;durP1;ratioP1;P1;durP2;ratioP2;P2;SDS_P1;SDS_P2;PMS_P1;PMS_P2;Temp;Humidity;BMP_temperature;BMP_pressure;BME280_temperature;BME280_humidity;BME280_pressure;Samples;Min_cycle;Max_cycle;Signal;HPM_P1;HPM_P2
2021/08/27 00:00:22;;;;;;;5.43;2.88;;;;;;;;;;5074554;28;20032;-78
2021/08/27 00:02:48;;;;;;;8.98;3.45;;;;;;;;;;5075276;28;20107;-78
2021/08/27 00:05:14;;;;;;;8.70;3.47;;;;;;;;;;5074878;28;20024;-77
2021/08/27 00:07:40;;;;;;;7.00;3.80;;;;;;;;;;5074890;28;20075;-78
2021/08/27 00:10:06;;;;;;;7.80;3.30;;;;;;;;;;5074757;28;20028;-77
2021/08/27 00:12:35;;;;;;;7.55;3.53;;;;;;;;;;5074787;28;20036;-76
2021/08/27 00:15:01;;;;;;;7.60;3.25;;;;;;;;;;5073374;28;20035;-77
2021/08/27 00:17:30;;;;;;;9.48;3.83;;;;;;;;;;5074454;28;20078;-77
2021/08/27 00:19:57;;;;;;;5.75;3.47;;;;;;;;;;5073325;28;20054;-77
2021/08/27 00:22:23;;;;;;;7.40;3.08;;;;;;;;;;5074611;28;20025;-76
2021/08/27 00:24:49;;;;;;;6.85;3.30;;;;;;;;;;5074683;28;20492;-75
2021/08/27 00:27:15;;;;;;;6.45;3.40;;;;;;;;;;5074959;28;20043;-78
2021/08/27 00:29:41;;;;;;;7.03;3.63;;;;;;;;;;5074471;28;20366;-77
2021/08/27 00:32:07;;;;;;;8.77;3.65;;;;;;;;;;5074443;28;20021;-76
2021/08/27 00:34:33;;;;;;;7.93;4.55;;;;;;;;;;5074581;28;20028;-77
2021/08/27 00:37:00;;;;;;;6.50;3.80;;;;;;;;;;5074523;28;20074;-76
2021/08/27 00:39:27;;;;;;;7.20;3.85;;;;;;;;;;5074270;28;20024;-78
2021/08/27 00:41:53;;;;;;;5.70;3.15;;;;;;;;;;5074475;28;20024;-77
2021/08/27 00:44:19;;;;;;;5.63;3.47;;;;;;;;;;5072874;28;20122;-76
2021/08/27 00:46:45;;;;;;;7.53;3.60;;;;;;;;;;5074061;28;20479;-78
2021/08/27 00:49:11;;;;;;;7.35;3.55;;;;;;;;;;5073976;28;20039;-78
2021/08/27 00:51:37;;;;;;;7.47;3.65;;;;;;;;;;5072593;28;20028;-77
2021/08/27 00:54:03;;;;;;;7.10;3.65;;;;;;;;;;5072651;28;20036;-78
2021/08/27 00:56:30;;;;;;;5.75;3.30;;;;;;;;;;5073892;28;20024;-77
2021/08/27 00:58:56;;;;;;;6.65;3.33;;;;;;;;;;5073857;28;20029;-77
2021/08/27 01:01:22;;;;;;;7.38;3.50;;;;;;;;;;5073786;28;20103;-78
2021/08/27 01:03:48;;;;;;;6.50;3.60;;;;;;;;;;5074005;28;20492;-77
2021/08/27 01:06:33;;;;;;;7.53;3.42;;;;;;;;;;5073974;28;20025;-76
2021/08/27 01:09:04;;;;;;;8.93;3.22;;;;;;;;;;5072183;28;20082;-76
2021/08/27 01:11:36;;;;;;;6.10;3.70;;;;;;;;;;5073764;28;20025;-76
2021/08/27 01:14:04;;;;;;;6.28;3.13;;;;;;;;;;5071421;28;20020;-77
2021/08/27 01:16:33;;;;;;;5.25;3.22;;;;;;;;;;5074017;28;20069;-76
2021/08/27 01:19:14;;;;;;;7.15;3.60;;;;;;;;;;5073402;28;20445;-77
2021/08/27 01:21:55;;;;;;;7.68;3.83;;;;;;;;;;5073525;28;20031;-78
2021/08/27 01:24:22;;;;;;;8.68;3.78;;;;;;;;;;5072261;28;20037;-78
2021/08/27 01:26:50;;;;;;;7.97;3.67;;;;;;;;;;5073804;28;20472;-77
2021/08/27 01:29:36;;;;;;;8.38;3.55;;;;;;;;;;5073779;28;20033;-78
2021/08/27 01:32:09;;;;;;;7.75;3.47;;;;;;;;;;5074006;28;20032;-76
2021/08/27 01:34:35;;;;;;;6.82;3.55;;;;;;;;;;5073665;28;20370;-77
2021/08/27 01:37:02;;;;;;;8.68;4.35;;;;;;;;;;5073602;28;20039;-77
2021/08/27 01:39:30;;;;;;;7.25;3.38;;;;;;;;;;5073578;28;20021;-77
2021/08/27 01:41:57;;;;;;;7.35;3.35;;;;;;;;;;5073327;28;20032;-76
2021/08/27 01:44:25;;;;;;;9.15;4.07;;;;;;;;;;5074473;28;20385;-76
2021/08/27 01:46:52;;;;;;;6.47;3.78;;;;;;;;;;5079613;28;20060;-76
2021/08/27 01:49:19;;;;;;;6.15;3.63;;;;;;;;;;5078200;28;20024;-76
2021/08/27 01:51:46;;;;;;;8.48;3.67;;;;;;;;;;5074584;28;20031;-77
2021/08/27 01:54:13;;;;;;;6.25;3.35;;;;;;;;;;5071833;28;20043;-78
2021/08/27 01:56:40;;;;;;;6.97;3.55;;;;;;;;;;5073373;28;20031;-78
2021/08/27 01:59:07;;;;;;;6.70;3.58;;;;;;;;;;5071823;28;20013;-77
2021/08/27 02:01:34;;;;;;;5.18;3.00;;;;;;;;;;5073136;28;20101;-78
2021/08/27 02:04:08;;;;;;;6.70;3.25;;;;;;;;;;5073052;28;20495;-77
2021/08/27 02:06:34;;;;;;;6.60;3.50;;;;;;;;;;5071501;28;20381;-77
2021/08/27 02:09:01;;;;;;;5.18;3.05;;;;;;;;;;5073069;28;20150;-78
2021/08/27 02:11:27;;;;;;;7.38;3.35;;;;;;;;;;5072961;28;20594;-78
2021/08/27 02:13:54;;;;;;;6.50;3.33;;;;;;;;;;5072927;28;20029;-78
2021/08/27 02:16:20;;;;;;;6.70;3.45;;;;;;;;;;5073149;28;20028;-77
2021/08/27 02:18:46;;;;;;;9.98;3.83;;;;;;;;;;5072689;28;20075;-77
2021/08/27 02:21:13;;;;;;;6.03;3.63;;;;;;;;;;5072846;28;20063;-77
2021/08/27 02:23:41;;;;;;;7.78;3.50;;;;;;;;;;5073040;28;20027;-77
2021/08/27 02:26:08;;;;;;;6.28;3.50;;;;;;;;;;5075508;28;20373;-78
2021/08/27 02:28:35;;;;;;;7.32;3.15;;;;;;;;;;5075512;28;20500;-78
2021/08/27 02:31:01;;;;;;;6.03;3.15;;;;;;;;;;5075347;28;20115;-78
2021/08/27 02:33:27;;;;;;;7.10;3.60;;;;;;;;;;5076646;28;20489;-78
2021/08/27 02:35:55;;;;;;;7.07;3.38;;;;;;;;;;5076567;28;20032;-77
2021/08/27 02:38:23;;;;;;;5.82;2.92;;;;;;;;;;5076512;28;20477;-78
2021/08/27 02:40:49;;;;;;;5.90;3.17;;;;;;;;;;5076498;28;20029;-77
2021/08/27 02:43:15;;;;;;;7.15;3.72;;;;;;;;;;5076674;28;20103;-78
2021/08/27 02:45:41;;;;;;;6.43;3.58;;;;;;;;;;5076676;28;20029;-77
2021/08/27 02:48:07;;;;;;;6.97;3.78;;;;;;;;;;5076401;28;20024;-76
2021/08/27 02:50:38;;;;;;;6.10;3.38;;;;;;;;;;5074980;28;20028;-77
2021/08/27 02:53:04;;;;;;;;;;;;;;;;;;5075160;28;20390;-77
2021/08/27 02:55:35;;;;;;;6.88;3.75;;;;;;;;;;5076833;28;19905;-76
2021/08/27 02:58:10;;;;;;;8.52;3.90;;;;;;;;;;5076809;28;20020;-77
2021/08/27 03:00:50;;;;;;;6.65;3.20;;;;;;;;;;5076726;28;20472;-76
2021/08/27 03:03:17;;;;;;;6.43;3.40;;;;;;;;;;5075200;28;20028;-76
2021/08/27 03:05:44;;;;;;;8.90;3.63;;;;;;;;;;5076379;28;20373;-77
2021/08/27 03:08:18;;;;;;;6.18;3.78;;;;;;;;;;5075987;28;20029;-77
2021/08/27 03:10:47;;;;;;;6.93;3.83;;;;;;;;;;5076525;28;20103;-78
2021/08/27 03:13:15;;;;;;;7.07;3.53;;;;;;;;;;5075927;28;20032;-78
2021/08/27 03:15:45;;;;;;;7.20;3.33;;;;;;;;;;5075999;28;20024;-77
2021/08/27 03:18:31;;;;;;;7.38;3.63;;;;;;;;;;5075981;28;20053;-77
2021/08/27 03:21:00;;;;;;;7.63;3.65;;;;;;;;;;5057842;28;20072;-77
2021/08/27 03:23:28;;;;;;;6.82;3.22;;;;;;;;;;5075753;28;20107;-77
2021/08/27 03:25:56;;;;;;;10.90;3.80;;;;;;;;;;5075688;28;20024;-77
2021/08/27 03:28:25;;;;;;;6.35;3.50;;;;;;;;;;5075933;28;20039;-77
2021/08/27 03:30:52;;;;;;;10.10;4.07;;;;;;;;;;5075790;28;20056;-77
2021/08/27 03:33:18;;;;;;;8.15;3.80;;;;;;;;;;5074283;28;20021;-78
2021/08/27 03:35:48;;;;;;;8.55;4.35;;;;;;;;;;5075000;28;20059;-77
2021/08/27 03:38:14;;;;;;;8.57;4.20;;;;;;;;;;5075433;28;20028;-76
2021/08/27 03:40:41;;;;;;;7.03;4.00;;;;;;;;;;5075423;28;20025;-77
2021/08/27 03:43:07;;;;;;;6.95;3.65;;;;;;;;;;5075408;28;20065;-75
2021/08/27 03:45:34;;;;;;;6.50;3.70;;;;;;;;;;5075603;28;20032;-77
2021/08/27 03:48:00;;;;;;;6.40;3.13;;;;;;;;;;5074338;28;20035;-78
2021/08/27 03:50:27;;;;;;;10.25;3.58;;;;;;;;;;5073909;28;20395;-78
2021/08/27 03:52:53;;;;;;;5.75;3.50;;;;;;;;;;5075231;28;20024;-78
2021/08/27 03:55:21;;;;;;;5.70;3.10;;;;;;;;;;5075215;28;20024;-78
2021/08/27 03:57:48;;;;;;;6.22;3.15;;;;;;;;;;5073886;28;20452;-77
2021/08/27 04:00:14;;;;;;;8.70;3.78;;;;;;;;;;5075049;28;20028;-77
2021/08/27 04:02:40;;;;;;;7.13;3.20;;;;;;;;;;5075314;28;20052;-78
2021/08/27 04:05:11;;;;;;;8.50;3.53;;;;;;;;;;5075004;28;20028;-77
2021/08/27 04:07:37;;;;;;;;;;;;;;;;;;5075679;28;20025;-77
2021/08/27 04:10:04;;;;;;;7.53;3.35;;;;;;;;;;5074800;28;19919;-77
2021/08/27 04:12:30;;;;;;;7.75;3.63;;;;;;;;;;5075071;28;20023;-76
2021/08/27 04:14:56;;;;;;;8.18;3.78;;;;;;;;;;5074681;28;20028;-77
2021/08/27 04:17:22;;;;;;;4.75;3.15;;;;;;;;;;5074486;28;20474;-78
2021/08/27 04:19:48;;;;;;;7.05;3.58;;;;;;;;;;5074703;28;20162;-77
2021/08/27 04:22:14;;;;;;;8.05;3.70;;;;;;;;;;5074664;28;20021;-77
2021/08/27 04:24:40;;;;;;;8.85;4.03;;;;;;;;;;5074586;28;20025;-75
2021/08/27 04:27:06;;;;;;;8.27;3.22;;;;;;;;;;5074499;28;20540;-78
2021/08/27 04:29:32;;;;;;;6.43;3.42;;;;;;;;;;5073216;28;20035;-76
2021/08/27 04:31:58;;;;;;;7.85;3.83;;;;;;;;;;5074611;28;20138;-76
2021/08/27 04:34:24;;;;;;;6.93;3.58;;;;;;;;;;5074375;28;20120;-77
2021/08/27 04:36:50;;;;;;;6.82;3.45;;;;;;;;;;5074315;28;20103;-76
2021/08/27 04:39:16;;;;;;;8.07;3.97;;;;;;;;;;5074535;28;20056;-76
2021/08/27 04:41:42;;;;;;;6.68;3.55;;;;;;;;;;5074477;28;20110;-77
2021/08/27 04:44:08;;;;;;;5.80;3.05;;;;;;;;;;5074209;28;20532;-78
2021/08/27 04:46:34;;;;;;;7.75;3.20;;;;;;;;;;5073922;28;20059;-77
2021/08/27 04:49:00;;;;;;;8.57;3.70;;;;;;;;;;5074648;28;20064;-78
2021/08/27 04:51:26;;;;;;;7.03;3.80;;;;;;;;;;5073978;28;20032;-77
2021/08/27 04:53:52;;;;;;;7.13;3.35;;;;;;;;;;5074230;28;20028;-76
2021/08/27 04:56:18;;;;;;;8.05;3.90;;;;;;;;;;5072676;28;20499;-76
2021/08/27 04:58:44;;;;;;;6.97;3.85;;;;;;;;;;5072649;28;20024;-77
2021/08/27 05:01:10;;;;;;;7.47;3.70;;;;;;;;;;5073823;28;20103;-77
2021/08/27 05:03:37;;;;;;;8.63;3.78;;;;;;;;;;5072543;28;20047;-77
2021/08/27 05:06:03;;;;;;;6.07;3.00;;;;;;;;;;5073795;28;20047;-77
2021/08/27 05:08:29;;;;;;;7.63;3.70;;;;;;;;;;5074014;28;20107;-76
2021/08/27 05:10:56;;;;;;;8.95;3.63;;;;;;;;;;5072313;28;20419;-76
2021/08/27 05:13:22;;;;;;;6.57;3.58;;;;;;;;;;5073683;28;20032;-77
2021/08/27 05:15:48;;;;;;;9.32;3.38;;;;;;;;;;5073558;28;20017;-76
2021/08/27 05:18:14;;;;;;;8.35;3.83;;;;;;;;;;5073384;28;20041;-75
2021/08/27 05:20:40;;;;;;;7.63;3.90;;;;;;;;;;5073524;28;20099;-77
2021/08/27 05:23:06;;;;;;;8.25;3.67;;;;;;;;;;5073490;28;20082;-77
2021/08/27 05:25:32;;;;;;;6.20;3.60;;;;;;;;;;5073474;28;20024;-76
2021/08/27 05:27:58;;;;;;;6.50;3.22;;;;;;;;;;5072214;28;20477;-77
2021/08/27 05:30:24;;;;;;;6.40;3.20;;;;;;;;;;5073329;28;20077;-76
2021/08/27 05:32:52;;;;;;;7.78;3.53;;;;;;;;;;5073925;28;20379;-76
2021/08/27 05:35:18;;;;;;;6.38;3.28;;;;;;;;;;5073436;28;20040;-77
2021/08/27 05:37:44;;;;;;;6.47;3.40;;;;;;;;;;5073611;28;20127;-77
2021/08/27 05:40:10;;;;;;;5.72;3.35;;;;;;;;;;5073560;28;20496;-77
2021/08/27 05:42:38;;;;;;;7.53;3.53;;;;;;;;;;5073271;28;20035;-78
2021/08/27 05:45:04;;;;;;;7.25;3.38;;;;;;;;;;5073513;28;20020;-78
2021/08/27 05:47:30;;;;;;;7.95;3.83;;;;;;;;;;5073251;28;20040;-76
2021/08/27 05:49:57;;;;;;;6.55;3.28;;;;;;;;;;5073419;28;20024;-77
2021/08/27 05:52:23;;;;;;;5.68;3.20;;;;;;;;;;5073464;28;20472;-77
2021/08/27 05:54:49;;;;;;;6.93;3.58;;;;;;;;;;5073182;28;20111;-77
2021/08/27 05:57:15;;;;;;;6.90;3.53;;;;;;;;;;5073140;28;20059;-77
2021/08/27 05:59:41;;;;;;;6.53;3.17;;;;;;;;;;5077608;28;20040;-77
2021/08/27 06:02:07;;;;;;;7.22;4.03;;;;;;;;;;5078485;28;20055;-78
2021/08/27 06:04:33;;;;;;;8.30;3.47;;;;;;;;;;5079738;28;20051;-77
2021/08/27 06:06:59;;;;;;;8.98;3.45;;;;;;;;;;5078450;28;20381;-76
2021/08/27 06:09:25;;;;;;;7.30;3.60;;;;;;;;;;5078411;28;20020;-78
2021/08/27 06:11:51;;;;;;;7.35;3.28;;;;;;;;;;5079601;28;20028;-77
2021/08/27 06:14:17;;;;;;;5.85;3.42;;;;;;;;;;5079678;28;20021;-77
2021/08/27 06:16:43;;;;;;;6.93;3.72;;;;;;;;;;5079565;28;20029;-77
2021/08/27 06:19:09;;;;;;;8.75;3.10;;;;;;;;;;5079237;28;20052;-77
2021/08/27 06:21:37;;;;;;;8.15;3.75;;;;;;;;;;5080110;28;20074;-75
2021/08/27 06:24:04;;;;;;;10.45;4.03;;;;;;;;;;5079560;28;20025;-77
2021/08/27 06:26:30;;;;;;;7.63;3.53;;;;;;;;;;5079511;28;20032;-78
2021/08/27 06:28:56;;;;;;;7.68;3.42;;;;;;;;;;5080060;28;20360;-78
2021/08/27 06:31:22;;;;;;;9.20;3.65;;;;;;;;;;5079462;28;20032;-76
2021/08/27 06:33:48;;;;;;;4.35;2.95;;;;;;;;;;5079802;28;20024;-77
2021/08/27 06:36:15;;;;;;;6.43;3.20;;;;;;;;;;5078171;28;20054;-76
2021/08/27 06:38:41;;;;;;;6.85;3.42;;;;;;;;;;5079709;28;20026;-77
2021/08/27 06:41:07;;;;;;;8.13;3.53;;;;;;;;;;5079400;28;20029;-76
2021/08/27 06:43:35;;;;;;;6.65;3.83;;;;;;;;;;5079627;28;20029;-77
2021/08/27 06:46:04;;;;;;;7.07;3.78;;;;;;;;;;5079647;28;20035;-77
2021/08/27 06:48:30;;;;;;;7.88;3.97;;;;;;;;;;5079362;28;20024;-77
2021/08/27 06:50:56;;;;;;;7.00;3.60;;;;;;;;;;5079479;28;20530;-77
2021/08/27 06:53:23;;;;;;;7.53;3.50;;;;;;;;;;5079327;28;20055;-76
2021/08/27 06:55:49;;;;;;;7.32;3.30;;;;;;;;;;5077851;28;20408;-77
2021/08/27 06:58:15;;;;;;;4.55;2.50;;;;;;;;;;5079255;28;20384;-77
2021/08/27 07:00:41;;;;;;;8.65;3.33;;;;;;;;;;5077932;28;20049;-78
2021/08/27 07:03:07;;;;;;;7.57;3.38;;;;;;;;;;5079280;28;20020;-76
2021/08/27 07:05:33;;;;;;;8.98;4.00;;;;;;;;;;5079183;28;20396;-77
2021/08/27 07:07:59;;;;;;;9.48;3.58;;;;;;;;;;5079258;28;20027;-77
2021/08/27 07:10:36;;;;;;;8.40;3.58;;;;;;;;;;5078334;28;20029;-78
2021/08/27 07:13:03;;;;;;;7.63;3.17;;;;;;;;;;5074600;28;20046;-77
2021/08/27 07:15:29;;;;;;;7.85;3.30;;;;;;;;;;5075915;28;20029;-79
2021/08/27 07:17:55;;;;;;;6.85;3.17;;;;;;;;;;5085104;28;20093;-76
2021/08/27 07:20:22;;;;;;;8.70;3.70;;;;;;;;;;5096042;28;20107;-76
2021/08/27 07:22:48;;;;;;;8.05;4.43;;;;;;;;;;5077341;28;20032;-79
2021/08/27 07:25:15;;;;;;;10.60;3.83;;;;;;;;;;5095658;28;20032;-78
2021/08/27 07:27:41;;;;;;;7.85;3.20;;;;;;;;;;5095898;28;20020;-77
2021/08/27 07:30:08;;;;;;;7.70;3.42;;;;;;;;;;5096475;28;20099;-77
2021/08/27 07:32:34;;;;;;;8.15;3.28;;;;;;;;;;5076913;28;20144;-78
2021/08/27 07:35:00;;;;;;;9.32;3.30;;;;;;;;;;5095480;28;20020;-77
2021/08/27 07:37:26;;;;;;;8.32;3.20;;;;;;;;;;5094828;28;20140;-77
2021/08/27 07:39:52;;;;;;;8.07;3.35;;;;;;;;;;5095146;28;20024;-77
2021/08/27 07:42:18;;;;;;;7.88;3.70;;;;;;;;;;5095446;28;20020;-77
2021/08/27 07:44:44;;;;;;;8.85;3.38;;;;;;;;;;5094377;28;20027;-77
2021/08/27 07:47:10;;;;;;;6.13;3.35;;;;;;;;;;5094885;28;20016;-78
2021/08/27 07:49:36;;;;;;;9.13;3.17;;;;;;;;;;5095033;28;20263;-77
2021/08/27 07:52:03;;;;;;;7.32;3.22;;;;;;;;;;5095039;28;20032;-76
2021/08/27 07:54:30;;;;;;;6.07;3.10;;;;;;;;;;5095137;28;20388;-77
2021/08/27 07:56:56;;;;;;;8.45;3.63;;;;;;;;;;5095080;28;20047;-78
2021/08/27 07:59:22;;;;;;;5.43;2.65;;;;;;;;;;5095940;28;20027;-77
2021/08/27 08:01:48;;;;;;;9.15;3.13;;;;;;;;;;5094970;28;20020;-77
2021/08/27 08:04:14;;;;;;;6.15;3.30;;;;;;;;;;5094767;28;20426;-77
2021/08/27 08:06:40;;;;;;;8.27;3.05;;;;;;;;;;5095068;28;20434;-78
2021/08/27 08:09:06;;;;;;;6.32;2.53;;;;;;;;;;5077253;28;20054;-77
2021/08/27 08:11:33;;;;;;;7.25;2.88;;;;;;;;;;5095712;28;20078;-79
2021/08/27 08:13:59;;;;;;;6.63;2.70;;;;;;;;;;5095045;28;20049;-78
2021/08/27 08:16:25;;;;;;;7.82;3.08;;;;;;;;;;5095176;28;20019;-79
2021/08/27 08:18:51;;;;;;;8.55;2.90;;;;;;;;;;5076642;28;20389;-79
2021/08/27 08:21:20;;;;;;;7.13;2.75;;;;;;;;;;5094720;28;20046;-78
2021/08/27 08:23:46;;;;;;;8.65;2.58;;;;;;;;;;5094943;28;20028;-80
2021/08/27 08:26:12;;;;;;;5.25;2.67;;;;;;;;;;5095085;28;20024;-78
2021/08/27 08:28:38;;;;;;;5.28;2.58;;;;;;;;;;5095294;28;20063;-76
2021/08/27 08:31:05;;;;;;;9.35;3.10;;;;;;;;;;5094644;28;20494;-75
2021/08/27 08:33:31;;;;;;;9.77;2.88;;;;;;;;;;5094696;28;20028;-78
2021/08/27 08:35:57;;;;;;;5.45;2.83;;;;;;;;;;5094889;28;20089;-76
2021/08/27 08:38:24;;;;;;;10.18;2.90;;;;;;;;;;5094596;28;20488;-78
2021/08/27 08:40:50;;;;;;;6.18;2.55;;;;;;;;;;5094896;28;20114;-75
2021/08/27 08:43:16;;;;;;;9.43;3.08;;;;;;;;;;5094704;28;20376;-77
2021/08/27 08:45:46;;;;;;;7.13;2.83;;;;;;;;;;5094433;28;20031;-77
2021/08/27 08:48:14;;;;;;;7.72;2.83;;;;;;;;;;5094661;28;20024;-76
2021/08/27 08:50:40;;;;;;;6.10;2.60;;;;;;;;;;5094322;28;20024;-81
2021/08/27 08:53:06;;;;;;;7.88;3.35;;;;;;;;;;5094421;28;20016;-78
2021/08/27 08:55:33;;;;;;;8.15;3.33;;;;;;;;;;5094482;28;20065;-77
2021/08/27 08:57:59;;;;;;;8.55;3.20;;;;;;;;;;5094197;28;20031;-76
2021/08/27 09:00:28;;;;;;;10.95;3.22;;;;;;;;;;5094834;28;20035;-76
2021/08/27 09:02:54;;;;;;;9.30;3.05;;;;;;;;;;5094302;28;20133;-77
2021/08/27 09:05:20;;;;;;;8.15;3.28;;;;;;;;;;5094342;28;20449;-75
2021/08/27 09:07:46;;;;;;;10.48;2.90;;;;;;;;;;5094570;28;20107;-75
2021/08/27 09:10:18;;;;;;;7.40;2.50;;;;;;;;;;5093423;28;20020;-76
2021/08/27 09:12:45;;;;;;;8.40;3.00;;;;;;;;;;5094692;28;20028;-75
2021/08/27 09:15:11;;;;;;;8.88;3.17;;;;;;;;;;5094563;28;20017;-76
2021/08/27 09:17:42;;;;;;;6.10;2.90;;;;;;;;;;5094200;28;20500;-77
2021/08/27 09:20:09;;;;;;;9.93;2.78;;;;;;;;;;5093905;28;20027;-79
2021/08/27 09:22:52;;;;;;;8.13;3.30;;;;;;;;;;5094420;28;20095;-78
2021/08/27 09:25:19;;;;;;;8.88;2.85;;;;;;;;;;5094175;28;20460;-79
2021/08/27 09:28:04;;;;;;;7.47;2.60;;;;;;;;;;5094498;28;20035;-79
2021/08/27 09:30:31;;;;;;;9.05;3.25;;;;;;;;;;5093542;28;20024;-79
2021/08/27 09:33:06;;;;;;;8.98;3.22;;;;;;;;;;5092973;28;20047;-84
2021/08/27 09:35:33;;;;;;;8.05;3.17;;;;;;;;;;5093302;28;20099;-80
2021/08/27 09:37:59;;;;;;;7.60;2.80;;;;;;;;;;5074880;28;20028;-80
2021/08/27 09:40:26;;;;;;;5.68;2.78;;;;;;;;;;5074276;28;20391;-80
2021/08/27 09:42:53;;;;;;;7.68;2.83;;;;;;;;;;5074687;28;20060;-78
2021/08/27 09:45:20;;;;;;;7.85;2.95;;;;;;;;;;5093663;28;20491;-80
2021/08/27 09:47:57;;;;;;;8.23;2.85;;;;;;;;;;5093490;28;20095;-80
2021/08/27 09:50:25;;;;;;;9.15;3.17;;;;;;;;;;5093195;28;20488;-79
2021/08/27 09:52:55;;;;;;;11.02;3.38;;;;;;;;;;5092197;28;20513;-80
2021/08/27 09:55:21;;;;;;;9.32;3.30;;;;;;;;;;5093352;28;20020;-80
2021/08/27 09:57:47;;;;;;;8.60;2.90;;;;;;;;;;5093403;28;20504;-79
2021/08/27 10:00:17;;;;;;;5.40;2.63;;;;;;;;;;5093276;28;20556;-80
2021/08/27 10:02:43;;;;;;;7.53;2.67;;;;;;;;;;5093268;28;20039;-79
2021/08/27 10:05:10;;;;;;;7.55;2.85;;;;;;;;;;5093263;28;20034;-80
2021/08/27 10:07:41;;;;;;;7.93;2.83;;;;;;;;;;5093291;28;20028;-81
2021/08/27 10:10:09;;;;;;;7.30;2.78;;;;;;;;;;5093200;28;20020;-80
2021/08/27 10:12:36;;;;;;;7.53;3.00;;;;;;;;;;5093438;28;20435;-80
2021/08/27 10:15:03;;;;;;;8.38;2.75;;;;;;;;;;5093053;28;20021;-79
2021/08/27 10:17:29;;;;;;;9.88;2.97;;;;;;;;;;5093202;28;20540;-80
2021/08/27 10:19:55;;;;;;;7.05;2.65;;;;;;;;;;5074764;28;20497;-79
2021/08/27 10:22:21;;;;;;;5.43;2.60;;;;;;;;;;5093149;28;20024;-81
2021/08/27 10:24:49;;;;;;;7.28;3.08;;;;;;;;;;5093081;28;20016;-79
2021/08/27 10:27:15;;;;;;;7.97;2.60;;;;;;;;;;5093348;28;20020;-80
2021/08/27 10:29:52;;;;;;;6.30;2.75;;;;;;;;;;5093035;28;20017;-80
2021/08/27 10:32:36;;;;;;;6.78;3.05;;;;;;;;;;5093223;28;20047;-80
2021/08/27 10:35:02;;;;;;;8.27;3.08;;;;;;;;;;5093323;28;20073;-78
2021/08/27 10:37:44;;;;;;;7.70;2.72;;;;;;;;;;5092981;28;20032;-80
2021/08/27 10:40:28;;;;;;;8.73;3.03;;;;;;;;;;5092992;28;20016;-79
2021/08/27 10:42:58;;;;;;;7.28;3.17;;;;;;;;;;5093488;28;20361;-80
2021/08/27 10:45:33;;;;;;;6.70;2.67;;;;;;;;;;5094281;28;20085;-80
2021/08/27 10:48:09;;;;;;;8.25;3.22;;;;;;;;;;5078512;28;20090;-80
2021/08/27 10:50:35;;;;;;;9.52;2.85;;;;;;;;;;5078469;28;20032;-79
2021/08/27 10:53:24;;;;;;;7.88;3.40;;;;;;;;;;5096972;28;20026;-80
2021/08/27 10:55:51;;;;;;;12.27;3.75;;;;;;;;;;5070396;28;20028;-80
2021/08/27 10:58:21;;;;;;;8.15;3.40;;;;;;;;;;5096802;28;20540;-80
2021/08/27 11:00:51;;;;;;;7.32;3.00;;;;;;;;;;5096747;28;20082;-80
2021/08/27 11:03:17;;;;;;;7.00;3.30;;;;;;;;;;5096807;28;20024;-80
2021/08/27 11:05:47;;;;;;;7.93;3.03;;;;;;;;;;5096493;28;20024;-79
2021/08/27 11:08:25;;;;;;;9.45;3.30;;;;;;;;;;5096630;28;20028;-80
2021/08/27 11:11:10;;;;;;;9.23;3.45;;;;;;;;;;5096524;28;20024;-81
2021/08/27 11:13:37;;;;;;;6.68;2.75;;;;;;;;;;5096232;28;20423;-79
2021/08/27 11:16:21;;;;;;;8.68;2.83;;;;;;;;;;5096385;28;20456;-80
2021/08/27 11:18:51;;;;;;;6.82;3.05;;;;;;;;;;5095998;28;20052;-79
2021/08/27 11:21:30;;;;;;;9.18;3.47;;;;;;;;;;5077929;28;20035;-79
2021/08/27 11:24:12;;;;;;;7.07;2.88;;;;;;;;;;5096613;28;20050;-78
2021/08/27 11:27:01;;;;;;;8.60;3.15;;;;;;;;;;5077615;28;20028;-80
2021/08/27 11:29:40;;;;;;;8.73;2.55;;;;;;;;;;5085541;28;20047;-80
2021/08/27 11:32:09;;;;;;;7.13;2.83;;;;;;;;;;5095901;28;20128;-80
2021/08/27 11:34:55;;;;;;;7.15;2.80;;;;;;;;;;5077760;28;20040;-79
2021/08/27 11:37:25;;;;;;;9.20;3.28;;;;;;;;;;5095440;28;20032;-78
2021/08/27 11:39:52;;;;;;;8.63;2.95;;;;;;;;;;5096102;28;20411;-80
2021/08/27 11:42:18;;;;;;;7.07;3.10;;;;;;;;;;5095672;28;20024;-80
2021/08/27 11:44:45;;;;;;;6.40;2.78;;;;;;;;;;5095646;28;20032;-78
2021/08/27 11:47:14;;;;;;;7.75;2.90;;;;;;;;;;5095911;28;20028;-79
2021/08/27 11:49:45;;;;;;;8.85;3.42;;;;;;;;;;5095583;28;20024;-79
2021/08/27 11:52:15;;;;;;;7.90;3.10;;;;;;;;;;5095528;28;20076;-80
2021/08/27 11:54:41;;;;;;;8.40;3.38;;;;;;;;;;5095775;28;20035;-80
2021/08/27 11:57:17;;;;;;;6.78;3.28;;;;;;;;;;5076335;28;20154;-80
2021/08/27 11:59:44;;;;;;;7.95;3.03;;;;;;;;;;5095882;28;20103;-80
2021/08/27 12:02:17;;;;;;;9.20;2.80;;;;;;;;;;5095645;28;20024;-80
2021/08/27 12:04:43;;;;;;;6.60;2.70;;;;;;;;;;5077167;28;20032;-80
2021/08/27 12:07:10;;;;;;;10.65;3.47;;;;;;;;;;5095216;28;20032;-77
2021/08/27 12:09:36;;;;;;;7.85;2.63;;;;;;;;;;5095440;28;20488;-80
2021/08/27 12:12:03;;;;;;;7.22;2.95;;;;;;;;;;5095030;28;20107;-80
2021/08/27 12:14:55;;;;;;;8.48;3.08;;;;;;;;;;5076982;28;20020;-80
2021/08/27 12:17:23;;;;;;;9.02;3.05;;;;;;;;;;5091141;28;20033;-80
2021/08/27 12:19:50;;;;;;;8.68;2.97;;;;;;;;;;5095607;28;20476;-79
2021/08/27 12:22:17;;;;;;;8.35;2.70;;;;;;;;;;5094992;28;20046;-80
2021/08/27 12:24:45;;;;;;;5.13;2.60;;;;;;;;;;5094877;28;20056;-80
2021/08/27 12:27:11;;;;;;;7.80;2.92;;;;;;;;;;5094847;28;20035;-80
2021/08/27 12:29:37;;;;;;;5.95;2.85;;;;;;;;;;5095123;28;20035;-80
2021/08/27 12:32:03;;;;;;;7.80;3.03;;;;;;;;;;5094686;28;20024;-80
2021/08/27 12:34:29;;;;;;;7.28;2.83;;;;;;;;;;5076558;28;20115;-79
2021/08/27 12:36:55;;;;;;;7.15;3.10;;;;;;;;;;5094934;28;20039;-80
2021/08/27 12:39:21;;;;;;;7.65;2.88;;;;;;;;;;5095121;28;20056;-79
2021/08/27 12:41:47;;;;;;;7.13;3.08;;;;;;;;;;5094621;28;20020;-80
2021/08/27 12:44:14;;;;;;;5.65;2.35;;;;;;;;;;5095253;28;20063;-80
2021/08/27 12:46:47;;;;;;;6.20;2.45;;;;;;;;;;5076403;28;20024;-80
2021/08/27 12:49:23;;;;;;;7.85;2.67;;;;;;;;;;5095035;28;20039;-80
2021/08/27 12:51:54;;;;;;;6.72;2.42;;;;;;;;;;5094603;28;20032;-79
2021/08/27 12:54:24;;;;;;;7.82;3.05;;;;;;;;;;5094228;28;20028;-80
2021/08/27 12:57:17;;;;;;;6.90;2.70;;;;;;;;;;5094784;28;20023;-80
2021/08/27 13:00:02;;;;;;;6.75;3.10;;;;;;;;;;5073584;28;20032;-79
2021/08/27 13:02:34;;;;;;;7.70;2.78;;;;;;;;;;5094468;28;20027;-80
2021/08/27 13:05:00;;;;;;;7.93;3.58;;;;;;;;;;5094466;28;20364;-80
2021/08/27 13:07:27;;;;;;;6.80;2.97;;;;;;;;;;5094067;28;20028;-78
2021/08/27 13:10:10;;;;;;;6.70;2.70;;;;;;;;;;5094244;28;20027;-79
2021/08/27 13:12:36;;;;;;;8.07;2.95;;;;;;;;;;5094073;28;20499;-81
2021/08/27 13:15:03;;;;;;;9.27;2.92;;;;;;;;;;5093906;28;20020;-80
2021/08/27 13:17:29;;;;;;;7.82;3.03;;;;;;;;;;5093915;28;20097;-79
2021/08/27 13:19:59;;;;;;;6.18;2.50;;;;;;;;;;5094175;28;20091;-81
2021/08/27 13:22:25;;;;;;;5.55;2.75;;;;;;;;;;5075722;28;20472;-81
2021/08/27 13:24:57;;;;;;;9.45;3.00;;;;;;;;;;5094054;28;20020;-80
2021/08/27 13:27:23;;;;;;;9.05;2.80;;;;;;;;;;5093764;28;20028;-80
2021/08/27 13:29:49;;;;;;;6.55;3.00;;;;;;;;;;5093740;28;20097;-80
2021/08/27 13:32:20;;;;;;;6.90;2.83;;;;;;;;;;5075534;28;20058;-80
2021/08/27 13:34:46;;;;;;;7.28;3.15;;;;;;;;;;5075516;28;20503;-80
2021/08/27 13:37:12;;;;;;;7.93;2.75;;;;;;;;;;5093576;28;20020;-81
2021/08/27 13:39:38;;;;;;;7.88;2.80;;;;;;;;;;5093835;28;20069;-80
2021/08/27 13:42:04;;;;;;;9.07;3.05;;;;;;;;;;5093767;28;20051;-79
2021/08/27 13:44:30;;;;;;;7.38;2.90;;;;;;;;;;5093314;28;20521;-80
2021/08/27 13:46:56;;;;;;;5.80;2.55;;;;;;;;;;5093434;28;20024;-79
2021/08/27 13:49:22;;;;;;;5.93;2.70;;;;;;;;;;5093701;28;20027;-80
2021/08/27 13:51:48;;;;;;;6.60;2.85;;;;;;;;;;5093328;28;20028;-81
2021/08/27 13:54:14;;;;;;;11.30;3.28;;;;;;;;;;5093372;28;20024;-79
2021/08/27 13:56:40;;;;;;;6.47;2.80;;;;;;;;;;5093376;28;20035;-79
2021/08/27 13:59:06;;;;;;;6.32;2.97;;;;;;;;;;5093388;28;20017;-80
2021/08/27 14:01:32;;;;;;;10.32;2.97;;;;;;;;;;5093353;28;20024;-81
2021/08/27 14:03:58;;;;;;;8.23;2.92;;;;;;;;;;5093310;28;20028;-80
2021/08/27 14:06:24;;;;;;;9.68;3.28;;;;;;;;;;5093298;28;20070;-78
2021/08/27 14:08:50;;;;;;;7.13;2.95;;;;;;;;;;5093265;28;20473;-79
2021/08/27 14:11:16;;;;;;;7.30;2.88;;;;;;;;;;5093111;28;20116;-80
2021/08/27 14:13:42;;;;;;;7.38;2.75;;;;;;;;;;5093155;28;20533;-78
2021/08/27 14:16:08;;;;;;;7.68;2.95;;;;;;;;;;5093174;28;20054;-80
2021/08/27 14:18:36;;;;;;;10.93;3.25;;;;;;;;;;5092965;28;20047;-80
2021/08/27 14:21:04;;;;;;;8.05;3.08;;;;;;;;;;5095911;28;20031;-79
2021/08/27 14:23:31;;;;;;;8.63;3.13;;;;;;;;;;5097582;28;20389;-81
2021/08/27 14:25:57;;;;;;;6.50;2.67;;;;;;;;;;5098051;28;20031;-79
2021/08/27 14:28:24;;;;;;;6.45;2.63;;;;;;;;;;5097735;28;20028;-80
2021/08/27 14:30:52;;;;;;;6.97;2.88;;;;;;;;;;5097336;28;20024;-79
2021/08/27 14:33:18;;;;;;;7.95;3.20;;;;;;;;;;5097148;28;20020;-80
2021/08/27 14:35:44;;;;;;;8.73;3.20;;;;;;;;;;5097309;28;20476;-79
2021/08/27 14:38:10;;;;;;;8.23;3.13;;;;;;;;;;5096933;28;20026;-79
2021/08/27 14:40:37;;;;;;;6.57;3.08;;;;;;;;;;5097223;28;20028;-79
2021/08/27 14:43:03;;;;;;;6.20;3.05;;;;;;;;;;5097286;28;20494;-79
2021/08/27 14:45:30;;;;;;;8.65;3.15;;;;;;;;;;5097087;28;20028;-79
2021/08/27 14:47:56;;;;;;;8.90;2.88;;;;;;;;;;5097107;28;20368;-79